KPWK/PWK METAR and TAF weather

Enter ICAO airport designator
Station Type Date Time Source
KPWK METAR 2019/12/14 18:52 UTC NOAA

KPWK 141852Z 30008KT 6SM HZ OVC008 01/M02 A2972 RMK AO2 CIG 007V012 SLP069 T00061022


Station Type Date Time Source
KPWK Decoded METAR 2019/12/14 18:52 UTC NOAA

CHICAGO EXECUTIVE AIRPORT, IL, United States (KPWK) 42-07N 087-54W 203M
Dec 14, 2019 - 01:52 PM EST / 2019.12.14 1852 UTC
Wind: from the WNW (300 degrees) at 9 MPH (8 KT):0
Visibility: 6 mile(s):0
Sky conditions: overcast
Weather: haze
Temperature: 33.1 F (0.6 C)
Windchill: 24 F (-4 C):1
Dew Point: 28.0 F (-2.2 C)
Relative Humidity: 81%
Pressure (altimeter): 29.72 in. Hg (1006 hPa)
ob: KPWK 141852Z 30008KT 6SM HZ OVC008 01/M02 A2972 RMK AO2 CIG 007V012 SLP069 T00061022
cycle: 19

Station Type Date Time Source
KPWK TAF UTC NOAA

Error!

Example: see airport list